createdAt,value
2023-03-18T00:00:35.304Z,51.47
2023-03-18T00:03:43.232Z,51.89
2023-03-18T00:06:49.917Z,52.12
2023-03-18T00:09:56.817Z,52.32
2023-03-18T00:13:04.683Z,52.35
2023-03-18T00:16:15.340Z,52.45
2023-03-18T00:19:21.386Z,53.18
2023-03-18T00:22:28.618Z,53.86
2023-03-18T00:25:34.560Z,54.27
2023-03-18T00:28:46.647Z,53.57
2023-03-18T00:31:56.438Z,53.03
2023-03-18T00:35:06.358Z,53.26
2023-03-18T00:38:20.963Z,53.85
2023-03-18T00:41:29.404Z,53.79
2023-03-18T00:44:43.600Z,53.94
2023-03-18T00:47:53.952Z,54.50
2023-03-18T00:51:00.854Z,55.37
2023-03-18T00:54:19.932Z,55.20
2023-03-18T00:57:27.613Z,55.00
2023-03-18T01:00:35.848Z,54.85
2023-03-18T01:03:47.921Z,55.15
2023-03-18T01:06:54.635Z,55.55
2023-03-18T01:10:00.521Z,55.91
2023-03-18T01:13:07.249Z,56.12
2023-03-18T01:16:18.080Z,56.47
2023-03-18T01:19:29.449Z,56.87
2023-03-18T01:22:36.246Z,56.87
2023-03-18T01:25:43.577Z,57.04
2023-03-18T01:28:51.053Z,57.52
2023-03-18T01:32:10.918Z,57.84
2023-03-18T01:35:20.507Z,57.97
2023-03-18T01:38:34.845Z,57.65
2023-03-18T01:42:00.121Z,57.59
2023-03-18T01:45:24.928Z,58.01
2023-03-18T01:48:42.751Z,57.69
2023-03-18T01:52:00.633Z,57.94
2023-03-18T01:55:12.876Z,57.98
2023-03-18T01:58:25.714Z,58.34
2023-03-18T02:01:38.361Z,57.95
2023-03-18T02:04:50.949Z,58.14
2023-03-18T02:08:06.941Z,58.00
2023-03-18T02:11:14.439Z,58.28
2023-03-18T02:14:26.878Z,58.28
2023-03-18T02:17:40.386Z,58.15
2023-03-18T02:21:17.045Z,58.59
2023-03-18T02:24:48.360Z,57.97
2023-03-18T02:28:11.689Z,58.61
2023-03-18T02:31:21.244Z,59.23
2023-03-18T02:34:29.638Z,59.57
2023-03-18T02:37:37.405Z,59.89
2023-03-18T02:40:46.173Z,60.27
2023-03-18T02:44:01.065Z,60.80
2023-03-18T02:47:23.803Z,61.55
2023-03-18T02:50:30.812Z,61.68
2023-03-18T02:54:04.201Z,62.10
2023-03-18T02:57:16.199Z,62.53
2023-03-18T03:00:28.471Z,62.65
2023-03-18T03:03:42.594Z,63.21
2023-03-18T03:06:51.687Z,63.20
2023-03-18T03:10:05.250Z,63.56
2023-03-18T03:13:13.710Z,63.56
2023-03-18T03:16:24.969Z,64.01
2023-03-18T03:19:31.122Z,64.51
2023-03-18T03:22:51.575Z,64.66
2023-03-18T03:26:04.076Z,64.61
2023-03-18T03:29:12.811Z,63.98
2023-03-18T03:32:24.899Z,63.73
2023-03-18T03:35:32.645Z,63.40
2023-03-18T03:38:38.839Z,63.25
2023-03-18T03:41:46.473Z,63.21
2023-03-18T03:44:55.140Z,63.17
2023-03-18T03:48:15.697Z,63.06
2023-03-18T03:51:24.126Z,63.00
2023-03-18T03:54:31.703Z,62.59
2023-03-18T03:57:40.008Z,62.63
2023-03-18T04:00:46.770Z,63.00
2023-03-18T04:03:58.168Z,62.73
2023-03-18T04:07:05.383Z,62.70
2023-03-18T04:10:15.179Z,62.80
2023-03-18T04:13:22.775Z,62.83
2023-03-18T04:16:29.541Z,63.30
2023-03-18T04:19:39.953Z,63.31
2023-03-18T04:22:47.070Z,63.28
2023-03-18T04:25:55.044Z,63.25
2023-03-18T04:29:01.202Z,63.08
2023-03-18T04:32:11.123Z,63.10
2023-03-18T04:35:21.712Z,62.82
2023-03-18T04:38:30.789Z,62.60
2023-03-18T04:41:37.692Z,62.42
2023-03-18T04:44:45.928Z,62.54
2023-03-18T04:47:53.079Z,62.53
2023-03-18T04:51:08.395Z,62.34
2023-03-18T04:54:15.396Z,62.31
2023-03-18T04:57:22.621Z,62.26
2023-03-18T05:00:35.445Z,62.50
2023-03-18T05:03:55.465Z,62.39
2023-03-18T05:07:07.384Z,62.28
2023-03-18T05:10:19.089Z,62.76
2023-03-18T05:13:25.489Z,62.48
2023-03-18T05:16:37.474Z,62.20
2023-03-18T05:19:44.259Z,62.36
2023-03-18T05:22:58.459Z,62.47
2023-03-18T05:26:20.857Z,61.88
2023-03-18T05:29:27.935Z,61.70
2023-03-18T05:32:43.653Z,61.38
2023-03-18T05:35:51.148Z,60.77
2023-03-18T05:39:03.503Z,60.74
2023-03-18T05:42:11.817Z,60.19
2023-03-18T05:45:22.557Z,59.56
2023-03-18T05:48:36.414Z,59.50
2023-03-18T05:51:44.998Z,59.03
2023-03-18T05:54:59.501Z,59.16
2023-03-18T05:58:10.385Z,57.86
2023-03-18T06:01:23.009Z,56.60
2023-03-18T06:04:29.507Z,54.69
2023-03-18T06:07:36.896Z,54.42
2023-03-18T06:11:00.761Z,51.90
2023-03-18T06:14:11.990Z,52.65
2023-03-18T06:17:18.317Z,51.86
2023-03-18T06:20:25.403Z,51.24
2023-03-18T06:23:31.936Z,50.94
2023-03-18T06:26:41.726Z,48.94
2023-03-18T06:29:48.206Z,49.37
2023-03-18T06:32:58.096Z,48.70
2023-03-18T06:36:10.832Z,49.12
2023-03-18T06:39:30.189Z,47.79
2023-03-18T06:42:44.855Z,47.53
2023-03-18T06:45:59.750Z,47.19
2023-03-18T06:49:22.679Z,47.26
2023-03-18T06:52:40.696Z,46.40
2023-03-18T06:56:00.364Z,46.12
2023-03-18T06:59:28.885Z,46.43
2023-03-18T07:02:39.439Z,45.63
2023-03-18T07:05:47.914Z,44.65
2023-03-18T07:08:55.340Z,45.99
2023-03-18T07:12:03.574Z,45.69
2023-03-18T07:15:14.945Z,45.38
2023-03-18T07:18:21.906Z,41.97
2023-03-18T07:21:28.204Z,39.68
2023-03-18T07:24:36.175Z,37.59
2023-03-18T07:27:42.492Z,36.74
2023-03-18T07:30:54.052Z,34.97
2023-03-18T07:34:00.804Z,35.86
2023-03-18T07:37:17.830Z,34.94
2023-03-18T07:40:26.421Z,35.84
2023-03-18T07:43:33.081Z,34.52
2023-03-18T07:46:41.693Z,33.58
2023-03-18T07:49:48.646Z,33.30
2023-03-18T07:52:55.190Z,34.82
2023-03-18T07:56:08.403Z,34.99
2023-03-18T07:59:16.107Z,35.57
2023-03-18T08:02:28.418Z,34.74
2023-03-18T08:05:34.981Z,33.96
2023-03-18T08:08:44.891Z,33.57
2023-03-18T08:11:51.063Z,32.20
2023-03-18T08:14:58.217Z,32.59
2023-03-18T08:18:27.398Z,32.72
2023-03-18T08:21:50.890Z,34.12
2023-03-18T08:24:58.508Z,33.60
2023-03-18T08:28:12.352Z,33.23
2023-03-18T08:31:18.493Z,33.99
2023-03-18T08:34:28.100Z,34.79
2023-03-18T08:37:34.083Z,34.23
2023-03-18T08:40:48.524Z,33.57
2023-03-18T08:43:57.519Z,32.76
2023-03-18T08:47:04.441Z,33.17
2023-03-18T08:50:17.362Z,31.89
2023-03-18T08:53:24.520Z,30.29
2023-03-18T08:56:32.769Z,29.59
2023-03-18T08:59:44.802Z,30.70
2023-03-18T09:02:51.193Z,30.49
2023-03-18T09:06:00.794Z,30.49
2023-03-18T09:09:09.854Z,29.85
2023-03-18T09:12:19.583Z,29.07
2023-03-18T09:15:25.775Z,28.63
2023-03-18T09:18:32.867Z,29.11
2023-03-18T09:21:41.689Z,29.97
2023-03-18T09:24:48.569Z,29.41
2023-03-18T09:27:55.344Z,30.40
2023-03-18T09:31:02.812Z,30.77
2023-03-18T09:34:08.709Z,29.79
2023-03-18T09:37:25.688Z,28.13
2023-03-18T09:40:44.124Z,27.64
2023-03-18T09:44:14.974Z,28.54
2023-03-18T09:47:54.349Z,29.08
2023-03-18T09:51:20.030Z,27.66
2023-03-18T09:54:41.415Z,27.74
2023-03-18T09:57:54.588Z,26.35
2023-03-18T10:01:07.461Z,24.12
2023-03-18T10:04:23.790Z,24.07
2023-03-18T10:07:40.409Z,23.35
2023-03-18T10:10:52.610Z,21.96
2023-03-18T10:14:21.360Z,22.20
2023-03-18T10:17:35.838Z,22.97
2023-03-18T10:21:08.221Z,23.02
2023-03-18T10:24:38.277Z,22.27
2023-03-18T10:28:06.937Z,21.76
2023-03-18T10:31:29.939Z,21.41
2023-03-18T10:34:49.319Z,21.37
2023-03-18T10:38:06.202Z,22.40
2023-03-18T10:41:30.375Z,22.40
2023-03-18T10:44:45.802Z,21.58
2023-03-18T10:48:06.322Z,23.04
2023-03-18T10:51:24.874Z,22.63
2023-03-18T10:54:41.147Z,23.52
2023-03-18T10:57:48.068Z,23.55
2023-03-18T11:00:56.547Z,22.47
2023-03-18T11:04:11.466Z,22.88
2023-03-18T11:07:26.192Z,22.40
2023-03-18T11:10:40.053Z,22.31
2023-03-18T11:13:50.876Z,22.03
2023-03-18T11:17:06.492Z,22.26
2023-03-18T11:20:25.637Z,24.00
2023-03-18T11:23:56.275Z,22.54
2023-03-18T11:27:02.557Z,22.07
2023-03-18T11:30:33.667Z,21.20
2023-03-18T11:33:42.797Z,21.77
2023-03-18T11:36:59.222Z,20.57
2023-03-18T11:40:26.570Z,22.47
2023-03-18T11:43:33.471Z,20.91
2023-03-18T11:46:48.736Z,21.38
2023-03-18T11:49:59.661Z,20.77
2023-03-18T11:53:26.472Z,21.55
2023-03-18T11:56:43.700Z,21.70
2023-03-18T12:00:17.829Z,21.26
2023-03-18T12:04:08.097Z,20.14
2023-03-18T12:07:52.477Z,20.17
2023-03-18T12:11:14.839Z,19.79
2023-03-18T12:14:36.527Z,18.68
2023-03-18T12:18:04.520Z,18.40
2023-03-18T12:21:45.727Z,18.86
2023-03-18T12:25:30.922Z,19.21
2023-03-18T12:28:56.512Z,17.25
2023-03-18T12:32:26.740Z,17.04
2023-03-18T12:35:53.664Z,17.12
2023-03-18T12:39:31.219Z,17.35
2023-03-18T12:43:03.945Z,18.68
2023-03-18T12:46:29.475Z,17.80
2023-03-18T12:49:41.952Z,18.75
2023-03-18T12:52:57.959Z,17.64
2023-03-18T12:56:27.839Z,17.36
2023-03-18T12:59:53.957Z,16.39
2023-03-18T13:03:09.012Z,17.50
2023-03-18T13:06:26.826Z,18.76
2023-03-18T13:09:43.918Z,18.41
2023-03-18T13:12:56.218Z,17.32
2023-03-18T13:16:09.290Z,17.81
2023-03-18T13:19:16.127Z,18.52
2023-03-18T13:23:00.687Z,18.13
2023-03-18T13:26:24.529Z,18.89
2023-03-18T13:29:46.197Z,20.05
2023-03-18T13:33:37.494Z,20.94
2023-03-18T13:37:30.896Z,21.30
2023-03-18T13:41:22.627Z,22.04
2023-03-18T13:44:47.736Z,21.28
2023-03-18T13:48:08.842Z,20.80
2023-03-18T13:51:43.679Z,21.58
2023-03-18T13:54:51.826Z,21.28
2023-03-18T13:58:11.860Z,20.64
2023-03-18T14:01:36.763Z,21.35
2023-03-18T14:04:53.738Z,22.34
2023-03-18T14:08:45.118Z,22.21
2023-03-18T14:11:54.631Z,23.15
2023-03-18T14:15:08.265Z,22.58
2023-03-18T14:18:28.865Z,22.36
2023-03-18T14:21:52.621Z,22.81
2023-03-18T14:25:23.819Z,22.87
2023-03-18T14:28:31.973Z,23.15
2023-03-18T14:31:59.454Z,22.79
2023-03-18T14:35:30.082Z,22.06
2023-03-18T14:38:51.956Z,21.65
2023-03-18T14:42:06.180Z,21.87
2023-03-18T14:45:24.733Z,22.18
2023-03-18T14:48:35.585Z,21.68
2023-03-18T14:51:41.940Z,21.66
2023-03-18T14:54:58.077Z,21.04
2023-03-18T14:58:07.383Z,21.24
2023-03-18T15:01:26.056Z,21.65
2023-03-18T15:04:32.206Z,21.51
2023-03-18T15:07:47.740Z,21.42
2023-03-18T15:11:05.817Z,21.50
2023-03-18T15:14:26.271Z,21.37
2023-03-18T15:17:32.492Z,21.46
2023-03-18T15:20:40.596Z,21.40
2023-03-18T15:23:54.694Z,22.63
2023-03-18T15:27:14.680Z,23.04
2023-03-18T15:30:36.369Z,22.14
2023-03-18T15:33:44.176Z,21.85
2023-03-18T15:36:58.214Z,22.34
2023-03-18T15:40:31.273Z,22.53
2023-03-18T15:43:46.452Z,22.14
2023-03-18T15:46:54.786Z,22.26
2023-03-18T15:50:03.100Z,23.03
2023-03-18T15:53:25.101Z,23.04
2023-03-18T15:56:34.541Z,23.11
2023-03-18T15:59:44.269Z,23.36
2023-03-18T16:02:50.771Z,23.19
2023-03-18T16:06:01.223Z,23.30
2023-03-18T16:09:18.807Z,23.72
2023-03-18T16:12:29.991Z,23.53
2023-03-18T16:15:39.486Z,24.06
2023-03-18T16:18:46.928Z,23.54
2023-03-18T16:21:52.871Z,23.87
2023-03-18T16:24:59.945Z,24.20
2023-03-18T16:28:25.975Z,24.53
2023-03-18T16:31:42.336Z,24.44
2023-03-18T16:34:48.775Z,24.80
2023-03-18T16:37:57.090Z,24.95
2023-03-18T16:41:05.316Z,24.85
2023-03-18T16:44:19.470Z,25.19
2023-03-18T16:47:32.143Z,25.23
2023-03-18T16:50:45.064Z,25.91
2023-03-18T16:53:56.407Z,25.84
2023-03-18T16:57:08.373Z,26.68
2023-03-18T17:00:22.936Z,26.50
2023-03-18T17:03:35.305Z,27.37
2023-03-18T17:06:41.261Z,28.07
2023-03-18T17:09:48.148Z,27.16
2023-03-18T17:13:00.558Z,26.66
2023-03-18T17:16:08.228Z,27.22
2023-03-18T17:19:19.128Z,27.06
2023-03-18T17:22:29.689Z,27.06
2023-03-18T17:25:36.399Z,26.72
2023-03-18T17:28:49.531Z,26.59
2023-03-18T17:31:57.607Z,26.73
2023-03-18T17:35:17.866Z,26.93
2023-03-18T17:38:24.655Z,27.42
2023-03-18T17:41:32.572Z,26.89
2023-03-18T17:44:39.242Z,27.23
2023-03-18T17:47:46.102Z,27.36
2023-03-18T17:50:58.322Z,27.56
2023-03-18T17:54:05.946Z,27.60
2023-03-18T17:57:18.098Z,27.47
2023-03-18T18:00:29.311Z,27.93
2023-03-18T18:03:38.974Z,27.96
2023-03-18T18:06:50.149Z,28.06
2023-03-18T18:09:57.292Z,28.25
2023-03-18T18:13:04.946Z,28.04
2023-03-18T18:16:11.212Z,28.27
2023-03-18T18:19:18.872Z,28.25
2023-03-18T18:22:27.863Z,28.07
2023-03-18T18:25:35.956Z,28.36
2023-03-18T18:28:45.033Z,28.55
2023-03-18T18:31:52.471Z,28.78
2023-03-18T18:34:58.488Z,28.63
2023-03-18T18:38:08.208Z,28.69
2023-03-18T18:41:14.551Z,28.92
2023-03-18T18:44:22.007Z,29.12
2023-03-18T18:47:28.215Z,29.44
2023-03-18T18:50:35.804Z,29.31
2023-03-18T18:53:44.452Z,29.37
2023-03-18T18:56:51.434Z,29.51
2023-03-18T18:59:58.302Z,29.52
2023-03-18T19:03:05.996Z,29.82
2023-03-18T19:06:29.522Z,29.96
2023-03-18T19:09:39.395Z,30.41
2023-03-18T19:12:46.495Z,30.77
2023-03-18T19:15:58.395Z,30.96
2023-03-18T19:19:06.303Z,31.08
2023-03-18T19:22:18.345Z,31.08
2023-03-18T19:25:28.818Z,31.12
2023-03-18T19:28:59.724Z,31.27
2023-03-18T19:32:09.425Z,31.27
2023-03-18T19:35:17.358Z,31.27
2023-03-18T19:38:25.148Z,31.18
2023-03-18T19:41:34.566Z,31.51
2023-03-18T19:44:42.671Z,31.40
2023-03-18T19:47:50.068Z,31.67
2023-03-18T19:50:57.884Z,32.33
2023-03-18T19:54:31.725Z,32.27
2023-03-18T19:57:40.350Z,32.27
2023-03-18T20:00:47.811Z,32.23
2023-03-18T20:03:59.161Z,32.26
2023-03-18T20:07:08.484Z,32.25
2023-03-18T20:10:16.912Z,32.59
2023-03-18T20:13:27.242Z,33.20
2023-03-18T20:16:36.505Z,33.03
2023-03-18T20:19:43.314Z,32.60
2023-03-18T20:22:55.934Z,33.13
2023-03-18T20:26:02.994Z,32.84
2023-03-18T20:29:21.132Z,33.00
2023-03-18T20:32:28.414Z,33.13
2023-03-18T20:35:38.411Z,33.39
2023-03-18T20:38:48.344Z,33.02
2023-03-18T20:41:54.634Z,33.46
2023-03-18T20:45:04.321Z,33.70
2023-03-18T20:48:10.780Z,33.76
2023-03-18T20:51:25.406Z,33.88
2023-03-18T20:54:37.562Z,33.46
2023-03-18T20:57:44.292Z,33.50
2023-03-18T21:00:54.252Z,33.62
2023-03-18T21:04:02.570Z,33.79
2023-03-18T21:07:08.566Z,33.72
2023-03-18T21:10:21.416Z,33.93
2023-03-18T21:13:34.014Z,33.85
2023-03-18T21:16:43.584Z,33.70
2023-03-18T21:19:50.484Z,33.79
2023-03-18T21:22:58.035Z,34.03
2023-03-18T21:26:04.426Z,34.27
2023-03-18T21:29:11.076Z,34.43
2023-03-18T21:32:27.331Z,34.17
2023-03-18T21:35:34.611Z,34.62
2023-03-18T21:38:40.708Z,34.54
2023-03-18T21:41:47.550Z,33.65
2023-03-18T21:44:54.768Z,33.20
2023-03-18T21:48:04.164Z,32.58
2023-03-18T21:51:38.182Z,32.46
2023-03-18T21:54:45.890Z,32.18
2023-03-18T21:57:52.853Z,32.50
2023-03-18T22:01:02.710Z,32.82
2023-03-18T22:04:12.128Z,32.71
2023-03-18T22:07:21.912Z,32.91
2023-03-18T22:10:28.941Z,33.25
2023-03-18T22:13:36.235Z,33.30
2023-03-18T22:16:42.088Z,33.28
2023-03-18T22:19:52.308Z,33.39
2023-03-18T22:22:58.442Z,33.15
2023-03-18T22:26:05.140Z,33.37
2023-03-18T22:29:10.921Z,33.50
2023-03-18T22:32:40.677Z,34.00
2023-03-18T22:35:49.663Z,34.45
2023-03-18T22:38:56.536Z,34.92
2023-03-18T22:42:02.665Z,35.19
2023-03-18T22:45:22.810Z,35.63
2023-03-18T22:48:29.737Z,36.12
2023-03-18T22:51:44.987Z,37.11
2023-03-18T22:54:56.086Z,38.03
2023-03-18T22:58:02.837Z,38.05
2023-03-18T23:01:09.923Z,38.66
2023-03-18T23:04:19.708Z,38.56
2023-03-18T23:07:34.456Z,38.00
2023-03-18T23:10:42.348Z,38.24
2023-03-18T23:13:53.433Z,38.41
2023-03-18T23:17:00.137Z,38.21
2023-03-18T23:20:06.278Z,38.22
2023-03-18T23:23:16.442Z,38.46
2023-03-18T23:26:22.758Z,38.62
2023-03-18T23:29:29.483Z,38.86
2023-03-18T23:32:35.965Z,39.14
2023-03-18T23:35:44.232Z,39.57
2023-03-18T23:38:52.817Z,39.70
2023-03-18T23:41:59.826Z,40.37
2023-03-18T23:45:06.951Z,41.00
2023-03-18T23:48:13.685Z,41.07
2023-03-18T23:51:19.525Z,41.05
2023-03-18T23:54:29.212Z,40.96
2023-03-18T23:57:35.104Z,41.28
